createdAt,value
2023-03-04T00:01:05.150Z,81.94
2023-03-04T00:06:09.540Z,82.00
2023-03-04T00:11:11.855Z,81.99
2023-03-04T00:16:13.760Z,81.77
2023-03-04T00:21:15.493Z,81.39
2023-03-04T00:26:17.720Z,80.94
2023-03-04T00:31:20.613Z,80.53
2023-03-04T00:36:22.243Z,80.32
2023-03-04T00:41:24.716Z,80.32
2023-03-04T00:46:27.251Z,80.59
2023-03-04T00:51:30.626Z,80.81
2023-03-04T00:56:32.460Z,80.97
2023-03-04T01:01:34.541Z,81.19
2023-03-04T01:06:36.573Z,81.20
2023-03-04T01:11:38.514Z,81.23
2023-03-04T01:16:40.298Z,81.21
2023-03-04T01:21:42.039Z,81.19
2023-03-04T01:26:43.625Z,81.11
2023-03-04T01:31:45.303Z,80.94
2023-03-04T01:36:47.813Z,80.94
2023-03-04T01:41:49.689Z,80.81
2023-03-04T01:46:54.937Z,80.51
2023-03-04T01:51:56.792Z,80.36
2023-03-04T01:57:00.373Z,80.33
2023-03-04T02:02:02.380Z,80.22
2023-03-04T02:07:05.990Z,80.48
2023-03-04T02:12:07.700Z,80.59
2023-03-04T02:17:13.088Z,80.50
2023-03-04T02:22:15.190Z,80.59
2023-03-04T02:27:16.896Z,80.83
2023-03-04T02:32:18.917Z,80.88
2023-03-04T02:37:21.797Z,80.71
2023-03-04T02:42:24.626Z,80.58
2023-03-04T02:47:26.662Z,80.63
2023-03-04T02:52:30.036Z,80.65
2023-03-04T02:57:32.984Z,80.32
2023-03-04T03:02:34.891Z,80.46
2023-03-04T03:07:37.122Z,80.68
2023-03-04T03:12:39.430Z,80.71
2023-03-04T03:17:42.219Z,80.41
2023-03-04T03:22:44.356Z,80.65
2023-03-04T03:27:46.197Z,80.88
2023-03-04T03:32:48.595Z,81.26
2023-03-04T03:37:50.641Z,81.89
2023-03-04T03:42:52.284Z,82.35
2023-03-04T03:47:53.904Z,82.69
2023-03-04T03:52:56.132Z,82.90
2023-03-04T03:57:57.895Z,82.78
2023-03-04T04:03:00.927Z,82.59
2023-03-04T04:08:02.786Z,82.65
2023-03-04T04:13:04.465Z,82.74
2023-03-04T04:18:06.839Z,82.58
2023-03-04T04:23:08.601Z,82.53
2023-03-04T04:28:10.586Z,82.60
2023-03-04T04:33:12.289Z,82.48
2023-03-04T04:38:14.005Z,82.13
2023-03-04T04:43:15.756Z,81.74
2023-03-04T04:48:17.594Z,81.44
2023-03-04T04:53:19.245Z,81.32
2023-03-04T04:58:21.146Z,81.27
2023-03-04T05:06:13.369Z,81.37
2023-03-04T05:11:15.771Z,81.28
2023-03-04T05:16:18.009Z,80.95
2023-03-04T05:21:20.041Z,80.87
2023-03-04T05:26:21.732Z,80.91
2023-03-04T05:31:23.696Z,81.04
2023-03-04T05:36:25.620Z,81.27
2023-03-04T05:41:27.400Z,81.15
2023-03-04T05:46:30.244Z,81.07
2023-03-04T05:51:33.532Z,81.04
2023-03-04T05:56:35.261Z,80.88
2023-03-04T06:01:36.944Z,80.82
2023-03-04T06:06:38.569Z,80.82
2023-03-04T06:11:41.013Z,80.80
2023-03-04T06:16:42.743Z,80.60
2023-03-04T06:21:44.443Z,80.42
2023-03-04T06:26:46.106Z,80.43
2023-03-04T06:31:47.901Z,80.41
2023-03-04T06:36:50.310Z,80.18
2023-03-04T06:41:52.045Z,79.83
2023-03-04T06:46:53.685Z,79.79
2023-03-04T06:51:55.383Z,79.51
2023-03-04T06:56:57.053Z,78.94
2023-03-04T07:01:58.751Z,78.09
2023-03-04T07:07:00.416Z,78.25
2023-03-04T07:12:02.199Z,78.53
2023-03-04T07:17:03.928Z,78.07
2023-03-04T07:22:06.113Z,78.68
2023-03-04T07:27:07.800Z,78.95
2023-03-04T07:32:10.587Z,78.73
2023-03-04T07:37:12.374Z,78.67
2023-03-04T07:42:14.063Z,78.91
2023-03-04T07:47:16.063Z,79.11
2023-03-04T07:52:17.720Z,78.38
2023-03-04T07:57:19.418Z,77.58
2023-03-04T08:02:21.159Z,77.39
2023-03-04T08:07:23.720Z,77.47
2023-03-04T08:12:26.023Z,77.09
2023-03-04T08:17:29.869Z,77.18
2023-03-04T08:22:31.557Z,77.20
2023-03-04T08:27:33.443Z,76.82
2023-03-04T08:32:35.402Z,76.59
2023-03-04T08:37:37.208Z,75.48
2023-03-04T08:42:38.809Z,74.88
2023-03-04T08:47:41.039Z,74.45
2023-03-04T08:52:42.881Z,73.91
2023-03-04T08:57:44.551Z,73.77
2023-03-04T09:02:46.197Z,73.55
2023-03-04T09:07:47.846Z,73.54
2023-03-04T09:12:49.528Z,73.72
2023-03-04T09:17:51.218Z,73.52
2023-03-04T09:22:52.984Z,73.21
2023-03-04T09:27:54.676Z,73.05
2023-03-04T09:32:57.530Z,72.97
2023-03-04T09:37:59.471Z,72.96
2023-03-04T09:43:04.133Z,72.97
2023-03-04T09:48:08.231Z,72.91
2023-03-04T09:53:23.285Z,72.90
2023-03-04T09:58:42.255Z,72.75
2023-03-04T10:03:49.772Z,72.60
2023-03-04T10:09:02.794Z,72.67
2023-03-04T10:14:23.096Z,72.65
2023-03-04T10:19:37.190Z,72.61
2023-03-04T10:24:38.941Z,72.83
2023-03-04T10:29:40.580Z,72.68
2023-03-04T10:34:42.316Z,72.39
2023-03-04T10:39:46.765Z,72.33
2023-03-04T10:44:52.950Z,72.48
2023-03-04T10:49:57.615Z,72.71
2023-03-04T10:55:04.334Z,72.74
2023-03-04T11:00:18.148Z,72.49
2023-03-04T11:05:22.998Z,72.12
2023-03-04T11:10:40.593Z,71.76
2023-03-04T11:16:21.964Z,71.57
2023-03-04T11:21:27.023Z,71.65
2023-03-04T11:26:40.079Z,71.74
2023-03-04T11:31:49.206Z,71.54
2023-03-04T11:37:08.048Z,71.05
2023-03-04T11:42:20.795Z,70.83
2023-03-04T11:47:34.083Z,70.41
2023-03-04T11:52:47.899Z,70.44
2023-03-04T11:58:07.108Z,70.26
2023-03-04T12:03:47.606Z,69.47
2023-03-04T12:09:04.965Z,69.45
2023-03-04T12:14:21.637Z,68.58
2023-03-04T12:19:30.121Z,68.06
2023-03-04T12:24:34.807Z,67.62
2023-03-04T12:29:51.350Z,67.79
2023-03-04T12:35:05.082Z,67.14
2023-03-04T12:40:20.810Z,67.04
2023-03-04T12:45:28.457Z,67.14
2023-03-04T12:50:53.416Z,67.24
2023-03-04T12:55:57.260Z,67.26
2023-03-04T13:01:34.753Z,66.64
2023-03-04T13:06:54.722Z,67.00
2023-03-04T13:12:20.373Z,67.27
2023-03-04T13:17:43.861Z,67.49
2023-03-04T13:22:51.677Z,68.37
2023-03-04T13:28:03.506Z,68.82
2023-03-04T13:33:08.252Z,68.87
2023-03-04T13:38:23.426Z,69.23
2023-03-04T13:43:28.609Z,69.27
2023-03-04T13:48:36.516Z,69.56
2023-03-04T13:53:40.846Z,69.15
2023-03-04T13:59:02.289Z,69.29
2023-03-04T14:04:38.047Z,69.24
2023-03-04T14:09:40.036Z,69.09
2023-03-04T14:14:50.427Z,69.40
2023-03-04T14:19:53.938Z,68.93
2023-03-04T14:25:14.235Z,68.16
2023-03-04T14:30:40.850Z,67.39
2023-03-04T14:35:49.219Z,67.36
2023-03-04T14:40:55.900Z,67.44
2023-03-04T14:46:01.121Z,67.65
2023-03-04T14:51:03.797Z,67.74
2023-03-04T14:56:16.112Z,67.63
2023-03-04T15:01:22.674Z,67.65
2023-03-04T15:06:26.551Z,67.73
2023-03-04T15:11:49.702Z,67.93
2023-03-04T15:16:57.073Z,67.97
2023-03-04T15:22:07.092Z,68.25
2023-03-04T15:27:12.403Z,68.36
2023-03-04T15:32:14.329Z,68.46
2023-03-04T15:37:42.987Z,68.51
2023-03-04T15:42:44.742Z,68.71
2023-03-04T15:47:46.562Z,68.99
2023-03-04T15:52:50.881Z,69.05
2023-03-04T15:57:55.882Z,69.28
2023-03-04T16:02:58.425Z,69.37
2023-03-04T16:08:00.129Z,69.43
2023-03-04T16:13:02.592Z,69.45
2023-03-04T16:18:04.303Z,69.64
2023-03-04T16:23:10.738Z,69.60
2023-03-04T16:28:13.282Z,69.62
2023-03-04T16:33:16.480Z,69.77
2023-03-04T16:38:27.102Z,69.95
2023-03-04T16:43:29.080Z,69.71
2023-03-04T16:48:30.824Z,69.74
2023-03-04T16:53:36.137Z,69.71
2023-03-04T16:58:37.895Z,69.74
2023-03-04T17:03:39.580Z,69.77
2023-03-04T17:08:41.707Z,69.97
2023-03-04T17:13:44.041Z,70.07
2023-03-04T17:18:46.248Z,70.09
2023-03-04T17:23:48.509Z,70.08
2023-03-04T17:28:51.672Z,70.30
2023-03-04T17:33:53.442Z,70.42
2023-03-04T17:38:55.069Z,70.80
2023-03-04T17:43:57.130Z,71.12
2023-03-04T17:48:59.670Z,70.95
2023-03-04T17:54:02.187Z,70.72
2023-03-04T17:59:06.590Z,70.59
2023-03-04T18:04:08.410Z,70.52
2023-03-04T18:09:10.230Z,70.35
2023-03-04T18:14:12.851Z,70.49
2023-03-04T18:19:16.337Z,70.64
2023-03-04T18:24:20.048Z,71.00
2023-03-04T18:29:21.763Z,71.70
2023-03-04T18:34:23.396Z,72.34
2023-03-04T18:39:25.146Z,72.99
2023-03-04T18:44:26.820Z,73.23
2023-03-04T18:49:31.109Z,73.32
2023-03-04T18:54:32.888Z,73.46
2023-03-04T18:59:47.139Z,73.51
2023-03-04T19:04:50.179Z,73.81
2023-03-04T19:09:51.866Z,74.05
2023-03-04T19:14:53.555Z,74.30
2023-03-04T19:19:55.163Z,74.46
2023-03-04T19:24:57.066Z,74.80
2023-03-04T19:29:58.968Z,75.35
2023-03-04T19:35:01.272Z,76.02
2023-03-04T19:40:03.940Z,76.52
2023-03-04T19:45:09.705Z,76.91
2023-03-04T19:50:13.349Z,78.47
2023-03-04T19:55:15.104Z,78.96
2023-03-04T20:00:17.337Z,79.47
2023-03-04T20:05:19.077Z,79.66
2023-03-04T20:10:20.883Z,79.74
2023-03-04T20:15:23.165Z,79.80
2023-03-04T20:20:28.666Z,79.66
2023-03-04T20:25:32.135Z,79.70
2023-03-04T20:30:33.773Z,79.19
2023-03-04T20:35:35.429Z,78.72
2023-03-04T20:40:38.087Z,78.31
2023-03-04T20:45:39.810Z,78.17
2023-03-04T20:50:41.542Z,78.25
2023-03-04T20:55:43.169Z,78.29
2023-03-04T21:00:44.813Z,78.30
2023-03-04T21:05:46.529Z,78.29
2023-03-04T21:10:51.237Z,78.59
2023-03-04T21:15:53.271Z,78.76
2023-03-04T21:20:55.388Z,78.72
2023-03-04T21:25:56.958Z,78.87
2023-03-04T21:30:58.903Z,78.96
2023-03-04T21:36:00.879Z,79.11
2023-03-04T21:41:02.865Z,79.56
2023-03-04T21:46:05.569Z,79.68
2023-03-04T21:51:08.463Z,80.11
2023-03-04T21:56:12.059Z,80.28
2023-03-04T22:01:16.953Z,79.55
2023-03-04T22:06:22.122Z,79.94
2023-03-04T22:11:24.530Z,80.36
2023-03-04T22:16:30.019Z,80.87
2023-03-04T22:21:31.834Z,81.14
2023-03-04T22:26:35.063Z,81.56
2023-03-04T22:31:38.475Z,81.84
2023-03-04T22:36:43.285Z,81.75
2023-03-04T22:41:45.857Z,82.01
2023-03-04T22:46:48.324Z,82.30
2023-03-04T22:51:53.057Z,82.45
2023-03-04T22:56:54.818Z,82.39
2023-03-04T23:01:57.255Z,82.37
2023-03-04T23:06:59.154Z,82.48
2023-03-04T23:12:01.323Z,82.42
2023-03-04T23:17:03.420Z,82.26
2023-03-04T23:22:05.453Z,82.38
2023-03-04T23:27:12.266Z,82.50
2023-03-04T23:32:14.072Z,83.26
2023-03-04T23:37:15.727Z,83.51
2023-03-04T23:42:17.384Z,83.54
2023-03-04T23:47:19.118Z,83.47
2023-03-04T23:52:20.849Z,83.26
2023-03-04T23:57:22.529Z,82.86
